createdAt,value
2019-05-18T00:00:03.922Z,40.27
2019-05-18T00:02:33.879Z,43.30
2019-05-18T00:05:02.051Z,45.57
2019-05-18T00:07:30.322Z,44.87
2019-05-18T00:09:58.357Z,46.43
2019-05-18T00:12:26.586Z,45.97
2019-05-18T00:14:54.743Z,49.77
2019-05-18T00:17:25.431Z,47.77
2019-05-18T00:19:53.121Z,50.23
2019-05-18T00:22:21.197Z,51.63
2019-05-18T00:24:49.390Z,51.80
2019-05-18T00:27:17.703Z,49.90
2019-05-18T00:29:46.740Z,54.10
2019-05-18T00:32:15.888Z,55.33
2019-05-18T00:34:43.929Z,54.97
2019-05-18T00:37:12.107Z,56.73
2019-05-18T00:39:40.462Z,54.27
2019-05-18T00:42:08.462Z,50.03
2019-05-18T00:44:36.623Z,54.17
2019-05-18T00:47:04.761Z,60.13
2019-05-18T00:49:32.780Z,55.63
2019-05-18T00:52:00.855Z,53.50
2019-05-18T00:54:28.951Z,54.20
2019-05-18T00:56:57.069Z,58.57
2019-05-18T00:59:25.298Z,58.60
2019-05-18T01:01:53.672Z,59.63
2019-05-18T01:04:21.731Z,55.20
2019-05-18T01:06:49.873Z,55.33
2019-05-18T01:09:18.043Z,53.30
2019-05-18T01:11:46.352Z,57.03
2019-05-18T01:14:14.430Z,53.13
2019-05-18T01:16:42.467Z,53.97
2019-05-18T01:19:10.905Z,49.00
2019-05-18T01:21:38.923Z,53.90
2019-05-18T01:24:07.218Z,58.20
2019-05-18T01:26:35.477Z,50.53
2019-05-18T01:29:06.683Z,61.00
2019-05-18T01:31:35.048Z,52.07
2019-05-18T01:34:03.293Z,55.33
2019-05-18T01:36:31.538Z,51.17
2019-05-18T01:38:59.603Z,50.93
2019-05-18T01:41:27.695Z,50.40
2019-05-18T01:43:55.839Z,54.50
2019-05-18T01:46:23.860Z,53.03
2019-05-18T01:48:52.967Z,51.93
2019-05-18T01:51:21.198Z,51.63
2019-05-18T01:53:49.837Z,54.93
2019-05-18T01:56:18.050Z,58.43
2019-05-18T01:58:46.120Z,48.87
2019-05-18T02:01:14.438Z,48.33
2019-05-18T02:03:42.546Z,54.03
2019-05-18T02:06:10.843Z,49.30
2019-05-18T02:08:39.080Z,49.37
2019-05-18T02:11:07.171Z,50.73
2019-05-18T02:13:35.272Z,46.57
2019-05-18T02:16:03.364Z,49.97
2019-05-18T02:18:31.594Z,54.33
2019-05-18T02:20:59.660Z,51.93
2019-05-18T02:23:27.792Z,47.63
2019-05-18T02:25:55.855Z,50.63
2019-05-18T02:28:23.965Z,46.97
2019-05-18T02:30:52.037Z,51.53
2019-05-18T02:33:20.181Z,50.47
2019-05-18T02:35:48.460Z,53.07
2019-05-18T02:38:16.919Z,49.20
2019-05-18T02:40:46.035Z,52.50
2019-05-18T02:43:15.481Z,55.43
2019-05-18T02:45:43.509Z,53.60
2019-05-18T02:48:12.889Z,52.20
2019-05-18T02:50:41.165Z,49.53
2019-05-18T02:53:09.326Z,48.60
2019-05-18T02:55:37.484Z,47.10
2019-05-18T02:58:06.505Z,51.80
2019-05-18T03:00:34.714Z,50.57
2019-05-18T03:03:02.883Z,47.10
2019-05-18T03:05:31.185Z,50.27
2019-05-18T03:07:59.283Z,47.43
2019-05-18T03:10:27.712Z,52.30
2019-05-18T03:12:55.966Z,53.20
2019-05-18T03:15:24.031Z,53.93
2019-05-18T03:17:52.413Z,50.73
2019-05-18T03:20:20.596Z,52.17
2019-05-18T03:22:48.842Z,53.63
2019-05-18T03:25:17.032Z,47.23
2019-05-18T03:27:45.240Z,52.10
2019-05-18T03:30:13.896Z,51.13
2019-05-18T03:32:42.023Z,53.13
2019-05-18T03:35:11.285Z,56.17
2019-05-18T03:37:41.603Z,51.10
2019-05-18T03:40:10.266Z,56.60
2019-05-18T03:42:39.413Z,50.03
2019-05-18T03:45:08.623Z,53.23
2019-05-18T03:47:36.714Z,55.80
2019-05-18T03:50:04.936Z,52.03
2019-05-18T03:52:33.086Z,54.33
2019-05-18T03:55:01.179Z,51.77
2019-05-18T03:57:29.272Z,50.83
2019-05-18T03:59:57.702Z,50.83
2019-05-18T04:02:25.942Z,50.03
2019-05-18T04:04:55.158Z,51.10
2019-05-18T04:07:23.348Z,50.37
2019-05-18T04:09:53.550Z,54.47
2019-05-18T04:12:22.076Z,50.43
2019-05-18T04:14:53.253Z,56.00
2019-05-18T04:17:24.658Z,57.13
2019-05-18T04:19:53.981Z,49.97
2019-05-18T04:22:24.310Z,47.30
2019-05-18T04:24:52.607Z,44.97
2019-05-18T04:27:21.274Z,50.53
2019-05-18T04:29:50.645Z,43.47
2019-05-18T04:32:18.995Z,47.47
2019-05-18T04:34:47.381Z,45.33
2019-05-18T04:37:16.385Z,44.27
2019-05-18T04:39:44.632Z,41.33
2019-05-18T04:42:12.684Z,44.00
2019-05-18T04:44:40.822Z,40.13
2019-05-18T04:47:08.886Z,40.70
2019-05-18T04:49:37.057Z,38.07
2019-05-18T04:52:07.107Z,36.60
2019-05-18T04:54:36.023Z,39.50
2019-05-18T04:57:06.067Z,34.90
2019-05-18T04:59:34.535Z,37.23
2019-05-18T05:02:02.830Z,38.77
2019-05-18T05:04:31.178Z,39.90
2019-05-18T05:06:59.328Z,39.70
2019-05-18T05:09:27.403Z,39.67
2019-05-18T05:11:55.994Z,40.73
2019-05-18T05:14:24.064Z,42.37
2019-05-18T05:16:52.278Z,40.23
2019-05-18T05:19:20.381Z,42.50
2019-05-18T05:21:48.635Z,44.93
2019-05-18T05:24:16.683Z,36.53
2019-05-18T05:26:44.748Z,35.70
2019-05-18T05:29:12.843Z,36.13
2019-05-18T05:31:40.811Z,36.70
2019-05-18T05:34:08.943Z,35.77
2019-05-18T05:36:37.011Z,35.20
2019-05-18T05:39:05.926Z,34.30
2019-05-18T05:41:34.195Z,33.47
2019-05-18T05:44:02.410Z,32.03
2019-05-18T05:46:30.535Z,32.83
2019-05-18T05:48:58.620Z,33.07
2019-05-18T05:51:26.873Z,31.77
2019-05-18T05:53:54.952Z,32.70
2019-05-18T05:56:23.496Z,31.60
2019-05-18T05:58:51.572Z,30.27
2019-05-18T06:01:19.742Z,30.13
2019-05-18T06:03:47.797Z,31.63
2019-05-18T06:06:15.883Z,31.07
2019-05-18T06:08:43.925Z,29.63
2019-05-18T06:11:12.822Z,28.97
2019-05-18T06:13:41.222Z,30.07
2019-05-18T06:16:09.335Z,31.13
2019-05-18T06:18:37.530Z,27.90
2019-05-18T06:21:05.789Z,28.17
2019-05-18T06:23:35.379Z,25.53
2019-05-18T06:26:03.740Z,28.67
2019-05-18T06:28:32.567Z,27.03
2019-05-18T06:31:01.022Z,27.30
2019-05-18T06:33:29.278Z,24.90
2019-05-18T06:35:57.654Z,25.90
2019-05-18T06:38:25.851Z,25.90
2019-05-18T06:40:54.181Z,29.27
2019-05-18T06:43:22.304Z,25.00
2019-05-18T06:45:50.397Z,27.90
2019-05-18T06:48:18.486Z,24.60
2019-05-18T06:50:46.603Z,26.13
2019-05-18T06:53:14.836Z,25.70
2019-05-18T06:55:43.231Z,25.93
2019-05-18T06:58:11.865Z,29.57
2019-05-18T07:00:40.008Z,28.27
2019-05-18T07:03:09.208Z,24.70
2019-05-18T07:05:37.229Z,27.13
2019-05-18T07:08:05.632Z,23.97
2019-05-18T07:10:33.949Z,22.67
2019-05-18T07:13:02.008Z,23.87
2019-05-18T07:15:30.079Z,23.93
2019-05-18T07:17:58.198Z,26.63
2019-05-18T07:20:26.305Z,28.50
2019-05-18T07:22:54.310Z,29.40
2019-05-18T07:25:22.528Z,24.97
2019-05-18T07:27:51.561Z,25.20
2019-05-18T07:30:23.701Z,24.40
2019-05-18T07:32:53.174Z,28.67
2019-05-18T07:35:21.345Z,27.67
2019-05-18T07:37:49.450Z,27.57
2019-05-18T07:40:17.617Z,26.57
2019-05-18T07:42:45.653Z,25.63
2019-05-18T07:45:14.402Z,22.27
2019-05-18T07:47:42.526Z,24.83
2019-05-18T07:50:12.777Z,26.83
2019-05-18T07:52:40.830Z,23.00
2019-05-18T07:55:09.097Z,24.20
2019-05-18T07:57:37.172Z,25.10
2019-05-18T08:00:05.845Z,20.73
2019-05-18T08:02:34.152Z,20.10
2019-05-18T08:05:02.201Z,21.77
2019-05-18T08:07:30.270Z,19.57
2019-05-18T08:09:58.303Z,21.10
2019-05-18T08:12:26.378Z,20.40
2019-05-18T08:14:54.457Z,20.37
2019-05-18T08:17:22.664Z,19.77
2019-05-18T08:19:50.831Z,19.23
2019-05-18T08:22:18.982Z,22.27
2019-05-18T08:24:47.054Z,23.32
2019-05-18T08:27:15.190Z,19.67
2019-05-18T08:29:43.290Z,19.02
2019-05-18T08:32:11.512Z,18.23
2019-05-18T08:34:39.600Z,17.00
2019-05-18T08:37:08.504Z,16.60
2019-05-18T08:39:36.649Z,13.97
2019-05-18T08:42:04.773Z,14.18
2019-05-18T08:44:32.937Z,14.00
2019-05-18T08:47:01.048Z,13.23
2019-05-18T08:49:29.171Z,14.15
2019-05-18T08:52:07.967Z,15.45
2019-05-18T08:54:27.407Z,14.03
2019-05-18T08:56:55.477Z,13.57
2019-05-18T08:59:23.519Z,13.55
2019-05-18T09:01:54.998Z,13.67
2019-05-18T09:04:23.275Z,13.20
2019-05-18T09:06:51.299Z,15.23
2019-05-18T09:09:19.417Z,19.15
2019-05-18T09:11:47.651Z,17.30
2019-05-18T09:14:15.877Z,13.47
2019-05-18T09:16:43.980Z,10.15
2019-05-18T09:19:12.099Z,12.70
2019-05-18T09:21:40.228Z,11.35
2019-05-18T09:24:08.404Z,14.40
2019-05-18T09:26:36.440Z,12.60
2019-05-18T09:29:05.511Z,13.90
2019-05-18T09:31:33.657Z,11.85
2019-05-18T09:34:01.984Z,14.40
2019-05-18T09:36:30.016Z,12.63
2019-05-18T09:38:58.130Z,13.13
2019-05-18T09:41:26.153Z,13.80
2019-05-18T09:43:54.231Z,15.32
2019-05-18T09:46:22.277Z,12.93
2019-05-18T09:48:50.450Z,13.07
2019-05-18T09:51:18.592Z,12.53
2019-05-18T09:53:51.395Z,15.83
2019-05-18T09:56:17.181Z,13.75
2019-05-18T09:58:45.374Z,14.30
2019-05-18T10:01:13.527Z,10.82
2019-05-18T10:03:41.666Z,10.77
2019-05-18T10:06:10.249Z,11.40
2019-05-18T10:08:38.355Z,10.72
2019-05-18T10:11:06.663Z,9.20
2019-05-18T10:13:35.023Z,8.53
2019-05-18T10:16:04.100Z,11.03
2019-05-18T10:18:36.888Z,11.35
2019-05-18T10:21:05.064Z,11.60
2019-05-18T10:23:33.415Z,10.85
2019-05-18T10:26:01.494Z,10.38
2019-05-18T10:28:29.657Z,12.20
2019-05-18T10:30:58.112Z,13.10
2019-05-18T10:33:26.306Z,12.33
2019-05-18T10:35:54.470Z,9.70
2019-05-18T10:38:22.607Z,9.38
2019-05-18T10:40:51.833Z,9.63
2019-05-18T10:43:19.958Z,9.33
2019-05-18T10:45:47.992Z,12.23
2019-05-18T10:48:16.165Z,9.05
2019-05-18T10:50:44.335Z,9.48
2019-05-18T10:53:27.484Z,9.23
2019-05-18T10:55:42.397Z,9.88
2019-05-18T10:58:10.566Z,10.27
2019-05-18T11:00:38.725Z,10.50
2019-05-18T11:03:06.728Z,10.20
2019-05-18T11:05:34.964Z,10.30
2019-05-18T11:08:03.165Z,10.78
2019-05-18T11:10:31.281Z,10.82
2019-05-18T11:12:59.500Z,10.00
2019-05-18T11:15:27.625Z,9.33
2019-05-18T11:17:55.655Z,9.05
2019-05-18T11:20:24.098Z,9.43
2019-05-18T11:22:52.261Z,10.45
2019-05-18T11:25:20.631Z,10.58
2019-05-18T11:27:48.951Z,10.55
2019-05-18T11:30:17.326Z,10.10
2019-05-18T11:32:45.637Z,9.90
2019-05-18T11:35:16.050Z,8.53
2019-05-18T11:37:44.199Z,8.75
2019-05-18T11:40:14.534Z,9.48
2019-05-18T11:42:42.665Z,9.60
2019-05-18T11:45:13.776Z,13.43
2019-05-18T11:47:41.906Z,11.70
2019-05-18T11:50:10.621Z,11.38
2019-05-18T11:52:38.790Z,9.13
2019-05-18T11:55:08.363Z,12.78
2019-05-18T11:57:36.914Z,10.35
2019-05-18T12:00:08.194Z,9.15
2019-05-18T12:02:36.831Z,9.58
2019-05-18T12:05:05.215Z,11.30
2019-05-18T12:07:33.370Z,9.48
2019-05-18T12:10:01.749Z,8.95
2019-05-18T12:12:31.341Z,9.23
2019-05-18T12:14:59.613Z,9.75
2019-05-18T12:17:28.044Z,10.72
2019-05-18T12:19:56.717Z,9.70
2019-05-18T12:22:24.919Z,11.80
2019-05-18T12:24:53.058Z,10.55
2019-05-18T12:27:21.420Z,10.55
2019-05-18T12:29:49.633Z,9.55
2019-05-18T12:32:17.720Z,9.50
2019-05-18T12:34:45.927Z,9.20
2019-05-18T12:37:21.693Z,9.15
2019-05-18T12:39:51.893Z,7.95
2019-05-18T12:42:20.479Z,8.50
2019-05-18T12:44:48.854Z,9.63
2019-05-18T12:47:16.943Z,8.43
2019-05-18T12:49:45.185Z,7.97
2019-05-18T12:52:13.323Z,7.47
2019-05-18T12:54:46.445Z,8.28
2019-05-18T12:57:11.868Z,9.58
2019-05-18T12:59:40.013Z,9.80
2019-05-18T13:02:08.196Z,8.45
2019-05-18T13:04:37.408Z,7.15
2019-05-18T13:07:05.677Z,8.10
2019-05-18T13:09:33.716Z,7.97
2019-05-18T13:12:02.009Z,7.80
2019-05-18T13:14:31.199Z,7.65
2019-05-18T13:16:59.297Z,6.72
2019-05-18T13:19:27.439Z,13.18
2019-05-18T13:21:56.054Z,7.05
2019-05-18T13:24:24.396Z,10.03
2019-05-18T13:26:52.516Z,6.67
2019-05-18T13:29:20.937Z,6.30
2019-05-18T13:31:49.074Z,6.22
2019-05-18T13:34:18.410Z,5.92
2019-05-18T13:36:46.635Z,5.67
2019-05-18T13:39:14.797Z,6.12
2019-05-18T13:41:42.893Z,8.08
2019-05-18T13:44:11.131Z,6.72
2019-05-18T13:46:39.288Z,6.03
2019-05-18T13:49:07.404Z,6.37
2019-05-18T13:51:35.531Z,6.45
2019-05-18T13:54:03.712Z,6.03
2019-05-18T13:56:34.065Z,5.30
2019-05-18T13:59:02.153Z,9.78
2019-05-18T14:01:30.492Z,6.62
2019-05-18T14:03:58.599Z,6.20
2019-05-18T14:06:27.532Z,7.58
2019-05-18T14:08:55.825Z,5.92
2019-05-18T14:11:23.992Z,5.92
2019-05-18T14:13:53.581Z,6.03
2019-05-18T14:16:21.682Z,5.95
2019-05-18T14:18:50.158Z,5.80
2019-05-18T14:21:18.187Z,5.05
2019-05-18T14:23:48.030Z,5.87
2019-05-18T14:26:16.262Z,5.62
2019-05-18T14:28:45.519Z,5.30
2019-05-18T14:31:14.220Z,7.65
2019-05-18T14:33:42.636Z,6.17
2019-05-18T14:36:11.191Z,6.95
2019-05-18T14:38:39.323Z,5.83
2019-05-18T14:41:07.384Z,5.42
2019-05-18T14:43:35.792Z,7.22
2019-05-18T14:46:03.910Z,9.45
2019-05-18T14:48:33.445Z,4.97
2019-05-18T14:51:01.620Z,5.40
2019-05-18T14:53:32.744Z,4.90
2019-05-18T14:56:00.972Z,4.75
2019-05-18T14:58:30.046Z,6.70
2019-05-18T15:00:58.326Z,6.28
2019-05-18T15:03:26.446Z,4.95
2019-05-18T15:05:55.323Z,4.83
2019-05-18T15:08:23.768Z,11.80
2019-05-18T15:10:52.395Z,15.13
2019-05-18T15:13:22.458Z,17.32
2019-05-18T15:15:50.718Z,17.20
2019-05-18T15:18:19.378Z,15.10
2019-05-18T15:20:50.117Z,17.60
2019-05-18T15:23:19.200Z,18.45
2019-05-18T15:25:51.093Z,17.85
2019-05-18T15:28:18.978Z,15.28
2019-05-18T15:30:50.375Z,14.98
2019-05-18T15:33:18.688Z,16.37
2019-05-18T15:35:47.099Z,16.05
2019-05-18T15:38:15.312Z,18.40
2019-05-18T15:40:43.483Z,14.43
2019-05-18T15:43:11.619Z,14.95
2019-05-18T15:45:39.699Z,15.45
2019-05-18T15:48:07.788Z,17.23
2019-05-18T15:50:35.930Z,14.38
2019-05-18T15:53:04.179Z,16.50
2019-05-18T15:55:32.458Z,15.78
2019-05-18T15:58:00.887Z,15.50
2019-05-18T16:00:29.117Z,13.93
2019-05-18T16:02:57.404Z,12.85
2019-05-18T16:05:25.453Z,11.68
2019-05-18T16:07:54.037Z,11.05
2019-05-18T16:10:22.314Z,12.88
2019-05-18T16:12:50.503Z,13.15
2019-05-18T16:15:18.820Z,14.95
2019-05-18T16:17:47.422Z,13.35
2019-05-18T16:20:15.979Z,13.32
2019-05-18T16:22:44.672Z,12.68
2019-05-18T16:25:13.307Z,13.05
2019-05-18T16:27:44.670Z,13.65
2019-05-18T16:30:13.170Z,12.60
2019-05-18T16:32:41.570Z,15.08
2019-05-18T16:35:10.521Z,12.10
2019-05-18T16:37:38.681Z,12.10
2019-05-18T16:40:06.950Z,13.08
2019-05-18T16:42:36.118Z,15.80
2019-05-18T16:45:04.632Z,12.20
2019-05-18T16:47:33.025Z,14.50
2019-05-18T16:50:01.205Z,12.85
2019-05-18T16:52:29.323Z,14.47
2019-05-18T16:54:57.455Z,12.98
2019-05-18T16:57:25.762Z,13.72
2019-05-18T16:59:53.806Z,14.25
2019-05-18T17:02:31.120Z,15.88
2019-05-18T17:04:51.937Z,17.60
2019-05-18T17:07:20.066Z,14.47
2019-05-18T17:09:48.925Z,14.50
2019-05-18T17:12:17.367Z,14.33
2019-05-18T17:14:45.507Z,15.00
2019-05-18T17:17:13.581Z,19.73
2019-05-18T17:19:41.708Z,17.35
2019-05-18T17:22:09.758Z,15.65
2019-05-18T17:24:37.853Z,15.98
2019-05-18T17:27:05.933Z,19.10
2019-05-18T17:29:34.170Z,18.02
2019-05-18T17:32:02.419Z,17.07
2019-05-18T17:34:30.611Z,16.40
2019-05-18T17:36:58.850Z,17.73
2019-05-18T17:39:27.201Z,17.48
2019-05-18T17:41:56.517Z,17.52
2019-05-18T17:44:24.694Z,16.62
2019-05-18T17:46:52.893Z,17.87
2019-05-18T17:49:26.654Z,21.05
2019-05-18T17:51:51.029Z,20.00
2019-05-18T17:54:19.194Z,19.07
2019-05-18T17:56:47.237Z,20.20
2019-05-18T17:59:15.474Z,18.02
2019-05-18T18:01:43.677Z,19.67
2019-05-18T18:04:11.811Z,19.40
2019-05-18T18:06:39.844Z,18.55
2019-05-18T18:09:08.214Z,19.98
2019-05-18T18:11:36.572Z,19.23
2019-05-18T18:14:09.809Z,19.70
2019-05-18T18:16:38.943Z,18.37
2019-05-18T18:19:12.035Z,21.82
2019-05-18T18:21:47.739Z,19.55
2019-05-18T18:24:16.850Z,22.87
2019-05-18T18:26:45.030Z,22.20
2019-05-18T18:29:13.161Z,21.27
2019-05-18T18:31:41.204Z,20.62
2019-05-18T18:34:09.309Z,21.37
2019-05-18T18:36:37.559Z,22.20
2019-05-18T18:39:08.111Z,22.77
2019-05-18T18:41:36.401Z,21.20
2019-05-18T18:44:04.532Z,20.47
2019-05-18T18:46:32.713Z,21.35
2019-05-18T18:49:01.710Z,21.87
2019-05-18T18:51:30.456Z,24.18
2019-05-18T18:53:58.524Z,21.52
2019-05-18T18:56:26.607Z,22.07
2019-05-18T18:58:54.837Z,21.52
2019-05-18T19:01:22.982Z,22.67
2019-05-18T19:03:51.113Z,23.27
2019-05-18T19:06:19.533Z,23.80
2019-05-18T19:08:47.808Z,22.55
2019-05-18T19:11:15.999Z,22.60
2019-05-18T19:13:45.848Z,21.80
2019-05-18T19:16:14.026Z,22.47
2019-05-18T19:18:43.322Z,23.20
2019-05-18T19:21:11.419Z,25.62
2019-05-18T19:23:39.532Z,22.75
2019-05-18T19:26:07.753Z,23.67
2019-05-18T19:28:35.869Z,22.15
2019-05-18T19:31:03.912Z,22.03
2019-05-18T19:33:32.221Z,24.43
2019-05-18T19:36:00.331Z,23.92
2019-05-18T19:38:28.515Z,22.00
2019-05-18T19:40:56.767Z,24.45
2019-05-18T19:43:24.853Z,22.33
2019-05-18T19:45:53.292Z,22.17
2019-05-18T19:48:23.290Z,21.70
2019-05-18T19:50:51.768Z,22.80
2019-05-18T19:53:20.135Z,25.83
2019-05-18T19:55:48.283Z,24.40
2019-05-18T19:58:16.352Z,22.07
2019-05-18T20:00:45.561Z,24.63
2019-05-18T20:03:13.803Z,25.80
2019-05-18T20:05:41.902Z,24.20
2019-05-18T20:08:10.418Z,26.37
2019-05-18T20:10:38.443Z,25.87
2019-05-18T20:13:06.478Z,25.77
2019-05-18T20:15:35.536Z,25.03
2019-05-18T20:18:03.567Z,26.40
2019-05-18T20:20:31.678Z,27.43
2019-05-18T20:23:00.119Z,27.13
2019-05-18T20:25:28.365Z,26.40
2019-05-18T20:27:56.990Z,25.73
2019-05-18T20:30:26.062Z,27.03
2019-05-18T20:32:54.488Z,26.83
2019-05-18T20:35:25.662Z,26.87
2019-05-18T20:37:52.618Z,29.60
2019-05-18T20:40:20.662Z,29.67
2019-05-18T20:42:49.024Z,31.73
2019-05-18T20:45:17.522Z,27.63
2019-05-18T20:47:45.623Z,30.53
2019-05-18T20:50:14.144Z,35.90
2019-05-18T20:52:42.285Z,30.07
2019-05-18T20:55:10.633Z,33.23
2019-05-18T20:57:38.819Z,31.70
2019-05-18T21:00:08.335Z,31.83
2019-05-18T21:02:38.341Z,33.10
2019-05-18T21:05:06.610Z,34.10
2019-05-18T21:07:34.677Z,36.43
2019-05-18T21:10:05.352Z,32.00
2019-05-18T21:12:33.638Z,35.77
2019-05-18T21:15:01.883Z,34.30
2019-05-18T21:17:34.065Z,37.33
2019-05-18T21:20:05.632Z,37.93
2019-05-18T21:22:34.381Z,34.50
2019-05-18T21:25:02.502Z,36.90
2019-05-18T21:27:30.693Z,34.63
2019-05-18T21:29:58.823Z,36.73
2019-05-18T21:32:26.916Z,33.97
2019-05-18T21:34:55.140Z,36.77
2019-05-18T21:37:26.034Z,37.57
2019-05-18T21:39:54.593Z,37.53
2019-05-18T21:42:25.500Z,42.43
2019-05-18T21:44:56.267Z,33.93
2019-05-18T21:47:29.203Z,37.40
2019-05-18T21:49:57.467Z,39.30
2019-05-18T21:52:25.851Z,36.90
2019-05-18T21:55:02.177Z,41.87
2019-05-18T21:57:32.167Z,35.40
2019-05-18T22:00:09.255Z,54.50
2019-05-18T22:02:39.406Z,37.33
2019-05-18T22:05:08.366Z,36.33
2019-05-18T22:07:36.839Z,37.07
2019-05-18T22:10:05.836Z,42.20
2019-05-18T22:12:34.327Z,39.00
2019-05-18T22:15:03.231Z,37.77
2019-05-18T22:17:35.655Z,39.30
2019-05-18T22:20:05.022Z,36.97
2019-05-18T22:22:33.728Z,43.03
2019-05-18T22:25:02.102Z,38.50
2019-05-18T22:27:30.434Z,42.37
2019-05-18T22:30:03.790Z,42.77
2019-05-18T22:32:32.096Z,44.97
2019-05-18T22:35:00.170Z,41.83
2019-05-18T22:37:28.205Z,39.70
2019-05-18T22:39:56.417Z,44.17
2019-05-18T22:42:24.465Z,40.50
2019-05-18T22:44:57.150Z,43.43
2019-05-18T22:47:25.495Z,42.37
2019-05-18T22:49:53.522Z,42.67
2019-05-18T22:52:21.734Z,43.27
2019-05-18T22:54:49.855Z,40.73
2019-05-18T22:57:18.003Z,47.60
2019-05-18T22:59:46.064Z,40.77
2019-05-18T23:02:14.311Z,44.53
2019-05-18T23:04:42.464Z,45.87
2019-05-18T23:07:10.484Z,43.17
2019-05-18T23:09:38.614Z,44.67
2019-05-18T23:12:06.767Z,45.77
2019-05-18T23:14:34.858Z,44.80
2019-05-18T23:17:03.118Z,50.00
2019-05-18T23:19:31.261Z,51.93
2019-05-18T23:21:59.373Z,49.23
2019-05-18T23:24:27.537Z,50.17
2019-05-18T23:26:55.860Z,53.20
2019-05-18T23:29:23.992Z,53.20
2019-05-18T23:31:52.091Z,52.53
2019-05-18T23:34:20.299Z,55.73
2019-05-18T23:36:48.331Z,51.13
2019-05-18T23:39:16.421Z,52.53
2019-05-18T23:41:44.687Z,55.10
2019-05-18T23:44:13.687Z,57.77
2019-05-18T23:46:41.749Z,57.23
2019-05-18T23:49:11.180Z,58.93
2019-05-18T23:51:39.795Z,61.73
2019-05-18T23:54:07.957Z,59.33
2019-05-18T23:56:36.149Z,55.23
2019-05-18T23:59:04.317Z,60.70
